Time,TemperatureF,DewpointF,PressureIn,WindDirection,WindDirectionDegrees,WindSpeedMPH,WindSpeedGustMPH,Humidity,HourlyPrecipIn,Conditions,Clouds,dailyrainin,SoftwareType,DateUTC
2013-03-22 00:02:00,21.0,16.3,30.01,WSW,256,0.0,1.0,82,0.00,,,0.00,meteohub,2013-03-22 04:02:00,
2013-03-22 00:07:00,20.8,16.2,30.01,WSW,255,0.0,1.0,82,0.00,,,0.00,meteohub,2013-03-22 04:07:00,
2013-03-22 00:12:00,20.7,16.3,30.01,WSW,255,1.0,1.0,83,0.00,,,0.00,meteohub,2013-03-22 04:12:00,
2013-03-22 00:17:00,20.5,16.2,30.01,WSW,256,0.0,1.0,83,0.00,,,0.00,meteohub,2013-03-22 04:17:00,
2013-03-22 00:22:00,20.5,16.3,30.01,WSW,256,0.0,1.0,84,0.00,,,0.00,meteohub,2013-03-22 04:22:00,
2013-03-22 00:27:00,20.3,16.2,30.01,WSW,255,1.0,1.0,84,0.00,,,0.00,meteohub,2013-03-22 04:27:00,
2013-03-22 00:37:00,20.1,16.0,30.01,West,276,0.0,1.0,84,0.00,,,0.00,meteohub,2013-03-22 04:37:00,
2013-03-22 00:42:00,20.1,16.0,30.01,West,277,0.0,1.0,84,0.00,,,0.00,meteohub,2013-03-22 04:42:00,
2013-03-22 00:47:00,19.9,15.6,30.01,West,277,0.0,1.0,83,0.00,,,0.00,meteohub,2013-03-22 04:47:00,
2013-03-22 00:52:00,19.8,15.8,30.01,West,277,0.0,0.0,84,0.00,,,0.00,meteohub,2013-03-22 04:52:00,
2013-03-22 01:02:00,19.4,15.4,30.01,West,276,0.0,1.0,84,0.00,,,0.00,meteohub,2013-03-22 05:02:00,
2013-03-22 01:07:00,19.4,15.6,30.01,West,275,0.0,1.0,85,0.00,,,0.00,meteohub,2013-03-22 05:07:00,
2013-03-22 01:17:00,19.0,15.1,30.01,West,276,0.0,0.0,84,0.00,,,0.00,meteohub,2013-03-22 05:17:00,
2013-03-22 01:22:00,18.9,15.1,30.01,West,275,1.0,0.0,85,0.00,,,0.00,meteohub,2013-03-22 05:22:00,
2013-03-22 01:27:00,19.0,15.6,30.01,WSW,250,1.0,1.0,86,0.00,,,0.00,meteohub,2013-03-22 05:27:00,
2013-03-22 01:32:00,19.0,15.3,30.01,SW,235,1.0,2.0,85,0.00,,,0.00,meteohub,2013-03-22 05:32:00,
2013-03-22 01:37:00,19.0,15.3,30.01,SW,235,0.0,2.0,85,0.00,,,0.00,meteohub,2013-03-22 05:37:00,
2013-03-22 01:47:00,18.7,14.9,30.01,WSW,238,0.0,1.0,85,0.00,,,0.00,meteohub,2013-03-22 05:47:00,
2013-03-22 01:57:00,18.7,15.3,30.01,WNW,287,0.0,1.0,86,0.00,,,0.00,meteohub,2013-03-22 05:57:00,
2013-03-22 02:02:00,18.7,15.3,30.01,WNW,285,0.0,1.0,86,0.00,,,0.00,meteohub,2013-03-22 06:02:00,
2013-03-22 02:07:00,18.5,14.7,30.01,WNW,285,0.0,1.0,85,0.00,,,0.00,meteohub,2013-03-22 06:07:00,
2013-03-22 02:12:00,18.1,14.7,30.01,WNW,285,0.0,1.0,86,0.00,,,0.00,meteohub,2013-03-22 06:12:00,
2013-03-22 02:17:00,18.1,14.7,30.01,WNW,285,0.0,1.0,86,0.00,,,0.00,meteohub,2013-03-22 06:17:00,
2013-03-22 02:27:00,18.0,14.5,30.01,WSW,257,0.0,1.0,86,0.00,,,0.00,meteohub,2013-03-22 06:27:00,
2013-03-22 02:32:00,17.8,14.4,30.01,WSW,252,0.0,1.0,86,0.00,,,0.00,meteohub,2013-03-22 06:32:00,
2013-03-22 02:37:00,17.6,14.4,30.01,SW,228,0.0,1.0,87,0.00,,,0.00,meteohub,2013-03-22 06:37:00,
2013-03-22 02:42:00,17.8,14.9,30.01,WSW,255,0.0,1.0,88,0.00,,,0.00,meteohub,2013-03-22 06:42:00,
2013-03-22 02:52:00,17.6,14.4,30.01,WSW,250,0.0,1.0,87,0.00,,,0.00,meteohub,2013-03-22 06:52:00,
2013-03-22 02:57:00,17.4,14.2,30.01,SSW,211,1.0,1.0,87,0.00,,,0.00,meteohub,2013-03-22 06:57:00,
2013-03-22 03:02:00,17.4,14.2,30.01,WSW,239,0.0,1.0,87,0.00,,,0.00,meteohub,2013-03-22 07:02:00,
2013-03-22 03:07:00,17.4,14.5,30.01,WSW,239,0.0,1.0,88,0.00,,,0.00,meteohub,2013-03-22 07:07:00,
2013-03-22 03:17:00,17.2,14.4,30.01,WSW,238,0.0,1.0,88,0.00,,,0.00,meteohub,2013-03-22 07:17:00,
2013-03-22 03:22:00,17.1,14.2,30.01,SW,229,0.0,1.0,88,0.00,,,0.00,meteohub,2013-03-22 07:22:00,
2013-03-22 03:27:00,17.1,14.2,30.01,SW,229,0.0,1.0,88,0.00,,,0.00,meteohub,2013-03-22 07:27:00,
2013-03-22 03:37:00,16.9,14.0,30.01,SW,226,0.0,1.0,88,0.00,,,0.00,meteohub,2013-03-22 07:37:00,
2013-03-22 03:42:00,17.1,14.4,30.01,West,274,0.0,1.0,89,0.00,,,0.00,meteohub,2013-03-22 07:42:00,
2013-03-22 03:47:00,17.1,14.2,30.01,West,274,0.0,1.0,88,0.00,,,0.00,meteohub,2013-03-22 07:47:00,
2013-03-22 03:52:00,17.1,14.2,30.01,West,274,0.0,1.0,88,0.00,,,0.00,meteohub,2013-03-22 07:52:00,
2013-03-22 03:57:00,16.7,13.8,30.01,West,267,0.0,1.0,88,0.00,,,0.00,meteohub,2013-03-22 07:57:00,
2013-03-22 04:02:00,16.5,13.6,30.01,West,260,0.0,1.0,88,0.00,,,0.00,meteohub,2013-03-22 08:02:00,
2013-03-22 04:07:00,16.3,13.5,30.01,WSW,253,0.0,1.0,88,0.00,,,0.00,meteohub,2013-03-22 08:07:00,
2013-03-22 04:12:00,16.3,13.6,30.01,WSW,252,0.0,1.0,89,0.00,,,0.00,meteohub,2013-03-22 08:12:00,
2013-03-22 04:22:00,16.5,14.2,30.02,West,262,0.0,1.0,90,0.00,,,0.00,meteohub,2013-03-22 08:22:00,
2013-03-22 04:27:00,16.3,13.6,30.01,SW,228,0.0,1.0,89,0.00,,,0.00,meteohub,2013-03-22 08:27:00,
2013-03-22 04:32:00,16.3,13.6,30.02,WSW,250,0.0,1.0,89,0.00,,,0.00,meteohub,2013-03-22 08:32:00,
2013-03-22 04:37:00,16.2,13.5,30.02,WSW,250,0.0,1.0,89,0.00,,,0.00,meteohub,2013-03-22 08:37:00,
2013-03-22 04:42:00,16.0,13.3,30.02,SW,228,0.0,1.0,89,0.00,,,0.00,meteohub,2013-03-22 08:42:00,
2013-03-22 04:52:00,16.0,13.3,30.02,WSW,242,0.0,1.0,89,0.00,,,0.00,meteohub,2013-03-22 08:52:00,
2013-03-22 04:57:00,15.6,12.9,30.02,WSW,242,0.0,1.0,89,0.00,,,0.00,meteohub,2013-03-22 08:57:00,
2013-03-22 05:02:00,15.6,13.3,30.02,WSW,243,0.0,1.0,90,0.00,,,0.00,meteohub,2013-03-22 09:02:00,
2013-03-22 05:12:00,15.8,13.5,30.02,West,279,0.0,1.0,90,0.00,,,0.00,meteohub,2013-03-22 09:12:00,
2013-03-22 05:17:00,15.6,13.3,30.02,WSW,243,0.0,1.0,90,0.00,,,0.00,meteohub,2013-03-22 09:17:00,
2013-03-22 05:22:00,15.6,13.3,30.02,SW,228,0.0,1.0,90,0.00,,,0.00,meteohub,2013-03-22 09:22:00,
2013-03-22 05:27:00,15.4,13.1,30.02,SW,228,1.0,1.0,90,0.00,,,0.00,meteohub,2013-03-22 09:27:00,
2013-03-22 05:32:00,15.4,13.1,30.02,West,278,0.0,1.0,90,0.00,,,0.00,meteohub,2013-03-22 09:32:00,
2013-03-22 05:37:00,15.4,13.1,30.02,West,278,0.0,1.0,90,0.00,,,0.00,meteohub,2013-03-22 09:37:00,
2013-03-22 05:42:00,15.4,13.1,30.02,West,276,0.0,1.0,90,0.00,,,0.00,meteohub,2013-03-22 09:42:00,
2013-03-22 05:52:00,15.3,12.9,30.02,West,276,0.0,1.0,90,0.00,,,0.00,meteohub,2013-03-22 09:52:00,
2013-03-22 05:57:00,15.3,12.9,30.02,West,275,0.0,1.0,90,0.00,,,0.00,meteohub,2013-03-22 09:57:00,
2013-03-22 06:02:00,15.3,12.9,30.02,West,275,0.0,1.0,90,0.00,,,0.00,meteohub,2013-03-22 10:02:00,
2013-03-22 06:12:00,15.3,12.9,30.03,West,268,0.0,0.0,90,0.00,,,0.00,meteohub,2013-03-22 10:12:00,
2013-03-22 06:17:00,15.3,12.9,30.03,WNW,299,0.0,1.0,90,0.00,,,0.00,meteohub,2013-03-22 10:17:00,
2013-03-22 06:22:00,15.3,12.9,30.03,West,266,0.0,1.0,90,0.00,,,0.00,meteohub,2013-03-22 10:22:00,
2013-03-22 06:27:00,15.3,12.9,30.03,NW,326,0.0,1.0,90,0.00,,,0.00,meteohub,2013-03-22 10:27:00,
2013-03-22 06:32:00,15.1,12.7,30.04,NW,325,0.0,1.0,90,0.00,,,0.00,meteohub,2013-03-22 10:32:00,
2013-03-22 06:37:00,14.7,12.4,30.04,NW,325,0.0,1.0,90,0.00,,,0.00,meteohub,2013-03-22 10:37:00,
2013-03-22 06:42:00,14.4,12.0,30.04,WNW,297,0.0,1.0,90,0.00,,,0.00,meteohub,2013-03-22 10:42:00,
2013-03-22 06:47:00,14.4,12.0,30.04,SW,222,1.0,1.0,90,0.00,,,0.00,meteohub,2013-03-22 10:47:00,
2013-03-22 06:52:00,14.4,12.0,30.04,SW,231,0.0,1.0,90,0.00,,,0.00,meteohub,2013-03-22 10:52:00,
2013-03-22 06:57:00,14.4,12.0,30.04,SW,231,0.0,1.0,90,0.00,,,0.00,meteohub,2013-03-22 10:57:00,
2013-03-22 07:02:00,14.4,12.2,30.05,SW,219,0.0,1.0,91,0.00,,,0.00,meteohub,2013-03-22 11:02:00,
2013-03-22 07:12:00,14.5,12.4,30.05,WSW,250,0.0,1.0,91,0.00,,,0.00,meteohub,2013-03-22 11:12:00,
2013-03-22 07:17:00,14.5,12.4,30.05,WSW,250,0.0,1.0,91,0.00,,,0.00,meteohub,2013-03-22 11:17:00,
2013-03-22 07:22:00,14.5,12.4,30.05,WSW,250,0.0,1.0,91,0.00,,,0.00,meteohub,2013-03-22 11:22:00,
2013-03-22 07:27:00,14.5,12.4,30.05,West,264,0.0,0.0,91,0.00,,,0.00,meteohub,2013-03-22 11:27:00,
2013-03-22 07:32:00,14.5,12.4,30.05,West,270,0.0,1.0,91,0.00,,,0.00,meteohub,2013-03-22 11:32:00,
2013-03-22 07:42:00,14.4,12.0,30.05,West,269,0.0,1.0,90,0.00,,,0.00,meteohub,2013-03-22 11:42:00,
2013-03-22 07:47:00,14.4,12.2,30.06,West,273,0.0,1.0,91,0.00,,,0.00,meteohub,2013-03-22 11:47:00,
2013-03-22 07:57:00,14.2,11.8,30.06,West,263,0.0,1.0,90,0.00,,,0.00,meteohub,2013-03-22 11:57:00,
2013-03-22 08:02:00,14.2,12.0,30.06,West,259,0.0,1.0,91,0.00,,,0.00,meteohub,2013-03-22 12:02:00,
2013-03-22 08:07:00,14.2,12.0,30.06,SW,236,0.0,0.0,91,0.00,,,0.00,meteohub,2013-03-22 12:07:00,
2013-03-22 08:12:00,14.4,12.2,30.06,SW,236,0.0,0.0,91,0.00,,,0.00,meteohub,2013-03-22 12:12:00,
2013-03-22 08:17:00,14.4,12.2,30.06,SW,225,0.0,0.0,91,0.00,,,0.00,meteohub,2013-03-22 12:17:00,
2013-03-22 08:22:00,14.4,12.2,30.07,SW,219,0.0,0.0,91,0.00,,,0.00,meteohub,2013-03-22 12:22:00,
2013-03-22 08:27:00,14.5,12.4,30.07,SW,219,0.0,0.0,91,0.00,,,0.00,meteohub,2013-03-22 12:27:00,
2013-03-22 08:32:00,14.9,12.7,30.07,SW,214,0.0,0.0,91,0.00,,,0.00,meteohub,2013-03-22 12:32:00,
2013-03-22 08:37:00,15.4,13.1,30.07,SW,214,0.0,0.0,90,0.00,,,0.00,meteohub,2013-03-22 12:37:00,
2013-03-22 08:42:00,16.0,13.6,30.07,SW,215,1.0,1.0,90,0.00,,,0.00,meteohub,2013-03-22 12:42:00,
2013-03-22 08:47:00,16.7,14.4,30.07,SSW,202,2.0,2.0,90,0.00,,,0.00,meteohub,2013-03-22 12:47:00,
2013-03-22 08:57:00,17.8,15.1,30.07,SSW,211,0.0,2.0,89,0.00,,,0.00,meteohub,2013-03-22 12:57:00,
2013-03-22 09:02:00,18.9,16.3,30.07,SSE,154,1.0,2.0,90,0.00,,,0.00,meteohub,2013-03-22 13:02:00,
2013-03-22 09:12:00,20.7,18.0,30.07,SSE,156,0.0,2.0,89,0.00,,,0.00,meteohub,2013-03-22 13:12:00,
2013-03-22 09:17:00,21.4,17.8,30.07,South,184,2.0,2.0,86,0.00,,,0.00,meteohub,2013-03-22 13:17:00,
2013-03-22 09:22:00,21.6,17.8,30.07,SSE,163,0.0,2.0,85,0.00,,,0.00,meteohub,2013-03-22 13:22:00,
2013-03-22 09:32:00,24.4,20.3,30.07,SSE,163,1.0,2.0,84,0.00,,,0.00,meteohub,2013-03-22 13:32:00,
2013-03-22 09:37:00,25.0,19.4,30.06,South,174,0.0,1.0,79,0.00,,,0.00,meteohub,2013-03-22 13:37:00,
2013-03-22 09:42:00,25.2,19.0,30.06,SSW,207,0.0,1.0,77,0.00,,,0.00,meteohub,2013-03-22 13:42:00,
2013-03-22 09:47:00,25.7,19.8,30.06,SSW,208,0.0,1.0,78,0.00,,,0.00,meteohub,2013-03-22 13:47:00,
2013-03-22 09:52:00,26.4,20.5,30.06,SSW,207,0.0,0.0,78,0.00,,,0.00,meteohub,2013-03-22 13:52:00,
2013-03-22 09:57:00,28.2,21.9,30.06,SSW,207,0.0,0.0,77,0.00,,,0.00,meteohub,2013-03-22 13:57:00,
2013-03-22 10:02:00,29.7,22.5,30.06,SSE,154,0.0,0.0,74,0.00,,,0.00,meteohub,2013-03-22 14:02:00,
2013-03-22 10:07:00,30.9,23.0,30.06,SE,139,0.0,0.0,72,0.00,,,0.00,meteohub,2013-03-22 14:07:00,
2013-03-22 10:12:00,32.0,22.3,30.06,SSE,158,0.0,0.0,67,0.00,,,0.00,meteohub,2013-03-22 14:12:00,
2013-03-22 10:17:00,32.7,21.2,30.06,ESE,117,0.0,0.0,62,0.00,,,0.00,meteohub,2013-03-22 14:17:00,
2013-03-22 10:27:00,34.0,21.9,30.06,ESE,117,0.0,0.0,61,0.00,,,0.00,meteohub,2013-03-22 14:27:00,
2013-03-22 10:32:00,34.9,22.5,30.06,SSE,165,1.0,1.0,60,0.00,,,0.00,meteohub,2013-03-22 14:32:00,
2013-03-22 10:37:00,35.2,20.7,30.06,ENE,65,1.0,1.0,55,0.00,,,0.00,meteohub,2013-03-22 14:37:00,
2013-03-22 10:42:00,34.0,19.9,30.05,NNE,29,2.0,2.0,56,0.00,,,0.00,meteohub,2013-03-22 14:42:00,
2013-03-22 10:52:00,34.7,18.9,30.05,SE,146,1.0,6.0,52,0.00,,,0.00,meteohub,2013-03-22 14:52:00,
2013-03-22 11:02:00,34.9,18.1,30.05,NW,316,0.0,6.0,50,0.00,,,0.00,meteohub,2013-03-22 15:02:00,
2013-03-22 11:12:00,35.6,17.8,30.04,North,11,1.0,6.0,48,0.00,,,0.00,meteohub,2013-03-22 15:12:00,
2013-03-22 11:17:00,35.6,18.3,30.04,SSE,153,5.0,5.0,49,0.00,,,0.00,meteohub,2013-03-22 15:17:00,
2013-03-22 11:22:00,35.4,18.1,30.04,ENE,61,3.0,7.0,49,0.00,,,0.00,meteohub,2013-03-22 15:22:00,
2013-03-22 11:27:00,35.8,18.0,30.04,SSW,211,4.0,7.0,48,0.00,,,0.00,meteohub,2013-03-22 15:27:00,
2013-03-22 11:32:00,35.8,18.0,30.04,SW,228,2.0,7.0,48,0.00,,,0.00,meteohub,2013-03-22 15:32:00,
2013-03-22 11:37:00,36.1,19.2,30.04,SSW,207,1.0,8.0,50,0.00,,,0.00,meteohub,2013-03-22 15:37:00,
2013-03-22 11:42:00,37.0,19.6,30.04,SSW,193,11.0,11.0,49,0.00,,,0.00,meteohub,2013-03-22 15:42:00,
2013-03-22 11:47:00,36.1,17.8,30.04,SSW,211,3.0,11.0,47,0.00,,,0.00,meteohub,2013-03-22 15:47:00,
2013-03-22 11:52:00,36.7,18.3,30.04,West,264,1.0,11.0,47,0.00,,,0.00,meteohub,2013-03-22 15:52:00,
2013-03-22 11:57:00,36.9,18.5,30.04,West,259,5.0,11.0,47,0.00,,,0.00,meteohub,2013-03-22 15:57:00,
2013-03-22 12:02:00,36.7,17.8,30.04,West,264,3.0,9.0,46,0.00,,,0.00,meteohub,2013-03-22 16:02:00,
2013-03-22 12:07:00,36.9,17.4,30.04,WNW,283,2.0,6.0,45,0.00,,,0.00,meteohub,2013-03-22 16:07:00,
2013-03-22 12:12:00,37.2,17.8,30.03,WNW,298,6.0,6.0,45,0.00,,,0.00,meteohub,2013-03-22 16:12:00,
2013-03-22 12:17:00,37.2,18.9,30.04,West,267,3.0,9.0,47,0.00,,,0.00,meteohub,2013-03-22 16:17:00,
2013-03-22 12:27:00,37.9,18.0,30.03,SE,131,0.0,9.0,44,0.00,,,0.00,meteohub,2013-03-22 16:27:00,
2013-03-22 12:32:00,38.3,17.8,30.03,SW,214,7.0,9.0,43,0.00,,,0.00,meteohub,2013-03-22 16:32:00,
2013-03-22 12:37:00,38.1,17.6,30.03,ESE,122,1.0,9.0,43,0.00,,,0.00,meteohub,2013-03-22 16:37:00,
2013-03-22 12:42:00,39.2,17.4,30.02,North,4,2.0,9.0,41,0.00,,,0.00,meteohub,2013-03-22 16:42:00,
2013-03-22 12:47:00,39.9,18.1,30.02,NE,43,4.0,8.0,41,0.00,,,0.00,meteohub,2013-03-22 16:47:00,
2013-03-22 12:52:00,39.9,19.8,30.02,East,84,2.0,5.0,44,0.00,,,0.00,meteohub,2013-03-22 16:52:00,
2013-03-22 12:57:00,40.8,18.3,30.01,North,5,4.0,5.0,40,0.00,,,0.00,meteohub,2013-03-22 16:57:00,
2013-03-22 13:07:00,40.1,18.3,30.01,SW,215,5.0,6.0,41,0.00,,,0.00,meteohub,2013-03-22 17:07:00,
2013-03-22 13:12:00,39.9,18.1,30.01,SSE,149,0.0,6.0,41,0.00,,,0.00,meteohub,2013-03-22 17:12:00,
2013-03-22 13:17:00,40.3,17.2,30.01,ENE,66,3.0,6.0,39,0.00,,,0.00,meteohub,2013-03-22 17:17:00,
2013-03-22 13:22:00,41.4,19.4,30.00,East,98,1.0,8.0,41,0.00,,,0.00,meteohub,2013-03-22 17:22:00,
2013-03-22 13:27:00,42.8,18.9,30.00,SE,129,0.0,8.0,38,0.00,,,0.00,meteohub,2013-03-22 17:27:00,
2013-03-22 13:32:00,43.5,19.0,30.00,WSW,256,1.0,8.0,37,0.00,,,0.00,meteohub,2013-03-22 17:32:00,
2013-03-22 13:37:00,42.1,16.3,30.00,WSW,242,4.0,5.0,35,0.00,,,0.00,meteohub,2013-03-22 17:37:00,
2013-03-22 13:42:00,41.4,15.8,30.00,SE,138,1.0,7.0,35,0.00,,,0.00,meteohub,2013-03-22 17:42:00,
2013-03-22 13:52:00,42.8,18.3,29.99,East,82,1.0,6.0,37,0.00,,,0.00,meteohub,2013-03-22 17:52:00,
2013-03-22 14:02:00,43.0,19.0,29.99,North,4,7.0,7.0,38,0.00,,,0.00,meteohub,2013-03-22 18:02:00,
2013-03-22 14:07:00,42.3,17.2,29.98,NNE,33,4.0,7.0,36,0.00,,,0.00,meteohub,2013-03-22 18:07:00,
2013-03-22 14:12:00,42.3,17.8,29.98,NNW,338,5.0,7.0,37,0.00,,,0.00,meteohub,2013-03-22 18:12:00,
2013-03-22 14:22:00,43.3,18.1,29.98,WSW,246,1.0,7.0,36,0.00,,,0.00,meteohub,2013-03-22 18:22:00,
2013-03-22 14:27:00,44.2,19.0,29.97,ENE,57,1.0,5.0,36,0.00,,,0.00,meteohub,2013-03-22 18:27:00,
2013-03-22 14:32:00,44.1,19.4,29.97,WSW,242,0.0,2.0,37,0.00,,,0.00,meteohub,2013-03-22 18:32:00,
2013-03-22 14:42:00,43.3,16.2,29.96,WNW,290,4.0,7.0,33,0.00,,,0.00,meteohub,2013-03-22 18:42:00,
2013-03-22 14:47:00,43.5,19.0,29.96,SSE,166,2.0,7.0,37,0.00,,,0.00,meteohub,2013-03-22 18:47:00,
2013-03-22 14:52:00,44.1,18.9,29.96,SSE,149,0.0,7.0,36,0.00,,,0.00,meteohub,2013-03-22 18:52:00,
2013-03-22 14:57:00,45.1,18.5,29.96,West,262,3.0,5.0,34,0.00,,,0.00,meteohub,2013-03-22 18:57:00,
2013-03-22 15:02:00,44.2,18.3,29.95,NE,34,5.0,5.0,35,0.00,,,0.00,meteohub,2013-03-22 19:02:00,
2013-03-22 15:12:00,43.2,16.7,29.95,SW,227,5.0,7.0,34,0.00,,,0.00,meteohub,2013-03-22 19:12:00,
2013-03-22 15:17:00,43.7,17.8,29.95,SW,217,5.0,7.0,35,0.00,,,0.00,meteohub,2013-03-22 19:17:00,
2013-03-22 15:22:00,44.1,16.7,29.95,NNE,20,2.0,8.0,33,0.00,,,0.00,meteohub,2013-03-22 19:22:00,
2013-03-22 15:27:00,44.2,18.3,29.95,SSW,207,2.0,8.0,35,0.00,,,0.00,meteohub,2013-03-22 19:27:00,
2013-03-22 15:37:00,45.1,17.8,29.94,NE,56,4.0,8.0,33,0.00,,,0.00,meteohub,2013-03-22 19:37:00,
2013-03-22 15:42:00,45.1,16.3,29.94,NNE,20,3.0,8.0,31,0.00,,,0.00,meteohub,2013-03-22 19:42:00,
2013-03-22 15:47:00,45.0,18.3,29.94,NE,56,2.0,6.0,34,0.00,,,0.00,meteohub,2013-03-22 19:47:00,
2013-03-22 15:52:00,44.8,18.1,29.94,North,5,0.0,6.0,34,0.00,,,0.00,meteohub,2013-03-22 19:52:00,
2013-03-22 15:57:00,45.1,19.8,29.94,North,357,3.0,6.0,36,0.00,,,0.00,meteohub,2013-03-22 19:57:00,
2013-03-22 16:02:00,44.8,18.1,29.94,NNW,347,2.0,6.0,34,0.00,,,0.00,meteohub,2013-03-22 20:02:00,
2013-03-22 16:07:00,44.2,16.2,29.93,SW,222,4.0,6.0,32,0.00,,,0.00,meteohub,2013-03-22 20:07:00,
2013-03-22 16:12:00,44.8,17.4,29.93,SE,129,0.0,6.0,33,0.00,,,0.00,meteohub,2013-03-22 20:12:00,
2013-03-22 16:17:00,46.4,19.6,29.93,West,266,2.0,6.0,34,0.00,,,0.00,meteohub,2013-03-22 20:17:00,
2013-03-22 16:22:00,45.3,17.2,29.93,WNW,297,3.0,8.0,32,0.00,,,0.00,meteohub,2013-03-22 20:22:00,
2013-03-22 16:27:00,44.8,16.7,29.93,NNW,336,2.0,8.0,32,0.00,,,0.00,meteohub,2013-03-22 20:27:00,
2013-03-22 16:32:00,45.0,16.9,29.93,WSW,255,5.0,8.0,32,0.00,,,0.00,meteohub,2013-03-22 20:32:00,
2013-03-22 16:37:00,45.1,17.1,29.92,WNW,297,2.0,7.0,32,0.00,,,0.00,meteohub,2013-03-22 20:37:00,
2013-03-22 16:42:00,46.8,19.2,29.92,ENE,68,2.0,7.0,33,0.00,,,0.00,meteohub,2013-03-22 20:42:00,
2013-03-22 16:52:00,47.5,17.6,29.92,West,263,1.0,5.0,30,0.00,,,0.00,meteohub,2013-03-22 20:52:00,
2013-03-22 16:57:00,46.9,17.1,29.92,NNW,344,0.0,5.0,30,0.00,,,0.00,meteohub,2013-03-22 20:57:00,
2013-03-22 17:02:00,47.8,18.7,29.92,NW,304,2.0,5.0,31,0.00,,,0.00,meteohub,2013-03-22 21:02:00,
2013-03-22 17:12:00,46.0,17.1,29.92,NW,304,2.0,6.0,31,0.00,,,0.00,meteohub,2013-03-22 21:12:00,
2013-03-22 17:17:00,46.6,20.3,29.92,WSW,257,2.0,7.0,35,0.00,,,0.00,meteohub,2013-03-22 21:17:00,
2013-03-22 17:27:00,46.0,15.6,29.92,WSW,245,6.0,8.0,29,0.00,,,0.00,meteohub,2013-03-22 21:27:00,
2013-03-22 17:32:00,45.7,15.3,29.92,SSW,194,3.0,9.0,29,0.00,,,0.00,meteohub,2013-03-22 21:32:00,
2013-03-22 17:37:00,46.6,17.6,29.92,SSW,201,0.0,9.0,31,0.00,,,0.00,meteohub,2013-03-22 21:37:00,
2013-03-22 17:47:00,46.8,14.5,29.92,South,169,1.0,6.0,27,0.00,,,0.00,meteohub,2013-03-22 21:47:00,
2013-03-22 17:52:00,47.1,15.6,29.92,NNW,334,6.0,6.0,28,0.00,,,0.00,meteohub,2013-03-22 21:52:00,
2013-03-22 17:57:00,46.0,14.7,29.92,North,358,3.0,6.0,28,0.00,,,0.00,meteohub,2013-03-22 21:57:00,
2013-03-22 18:02:00,46.0,16.3,29.91,North,356,6.0,6.0,30,0.00,,,0.00,meteohub,2013-03-22 22:02:00,
2013-03-22 18:07:00,45.9,16.2,29.91,NW,314,2.0,8.0,30,0.00,,,0.00,meteohub,2013-03-22 22:07:00,
2013-03-22 18:12:00,46.0,15.6,29.91,WNW,285,1.0,8.0,29,0.00,,,0.00,meteohub,2013-03-22 22:12:00,
2013-03-22 18:17:00,46.9,17.8,29.92,WNW,287,0.0,8.0,31,0.00,,,0.00,meteohub,2013-03-22 22:17:00,
2013-03-22 18:22:00,48.4,20.7,29.92,SE,144,1.0,6.0,33,0.00,,,0.00,meteohub,2013-03-22 22:22:00,
2013-03-22 18:32:00,49.5,19.2,29.92,NE,51,2.0,2.0,30,0.00,,,0.00,meteohub,2013-03-22 22:32:00,
2013-03-22 18:37:00,48.4,19.0,29.92,SW,217,2.0,2.0,31,0.00,,,0.00,meteohub,2013-03-22 22:37:00,
2013-03-22 18:42:00,47.1,18.7,29.92,SW,226,1.0,3.0,32,0.00,,,0.00,meteohub,2013-03-22 22:42:00,
2013-03-22 18:47:00,47.5,18.3,29.92,WNW,290,3.0,3.0,31,0.00,,,0.00,meteohub,2013-03-22 22:47:00,
2013-03-22 18:52:00,46.9,17.8,29.92,West,271,1.0,4.0,31,0.00,,,0.00,meteohub,2013-03-22 22:52:00,
2013-03-22 18:57:00,46.8,16.2,29.92,NW,309,1.0,4.0,29,0.00,,,0.00,meteohub,2013-03-22 22:57:00,
2013-03-22 19:02:00,46.0,16.3,29.92,WSW,242,2.0,4.0,30,0.00,,,0.00,meteohub,2013-03-22 23:02:00,
2013-03-22 19:12:00,46.4,19.6,29.93,WSW,248,2.0,4.0,34,0.00,,,0.00,meteohub,2013-03-22 23:12:00,
2013-03-22 19:17:00,45.7,19.6,29.93,WSW,245,2.0,3.0,35,0.00,,,0.00,meteohub,2013-03-22 23:17:00,
2013-03-22 19:22:00,44.4,19.8,29.93,WSW,255,0.0,3.0,37,0.00,,,0.00,meteohub,2013-03-22 23:22:00,
2013-03-22 19:32:00,43.0,23.5,29.93,SSW,210,1.0,3.0,46,0.00,,,0.00,meteohub,2013-03-22 23:32:00,
2013-03-22 19:37:00,41.2,23.0,29.94,SSW,211,0.0,1.0,48,0.00,,,0.00,meteohub,2013-03-22 23:37:00,
2013-03-22 19:42:00,39.9,24.3,29.94,SW,214,0.0,1.0,53,0.00,,,0.00,meteohub,2013-03-22 23:42:00,
2013-03-22 19:47:00,39.0,20.5,29.94,SW,225,2.0,2.0,47,0.00,,,0.00,meteohub,2013-03-22 23:47:00,
2013-03-22 19:52:00,38.5,23.4,29.94,SSE,163,2.0,2.0,54,0.00,,,0.00,meteohub,2013-03-22 23:52:00,
2013-03-22 19:57:00,37.8,19.8,29.94,SSE,158,4.0,4.0,48,0.00,,,0.00,meteohub,2013-03-22 23:57:00,
2013-03-22 20:02:00,37.8,21.2,29.94,South,177,5.0,5.0,51,0.00,,,0.00,meteohub,2013-03-23 00:02:00,
2013-03-22 20:07:00,37.2,23.7,29.94,SW,225,1.0,5.0,58,0.00,,,0.00,meteohub,2013-03-23 00:07:00,
2013-03-22 20:12:00,36.7,23.4,29.94,SW,215,1.0,5.0,58,0.00,,,0.00,meteohub,2013-03-23 00:12:00,
2013-03-22 20:17:00,36.0,24.3,29.95,South,187,0.0,5.0,62,0.00,,,0.00,meteohub,2013-03-23 00:17:00,
2013-03-22 20:22:00,35.2,23.5,29.95,SSE,149,0.0,2.0,62,0.00,,,0.00,meteohub,2013-03-23 00:22:00,
2013-03-22 20:32:00,34.2,23.5,29.95,South,169,2.0,2.0,65,0.00,,,0.00,meteohub,2013-03-23 00:32:00,
2013-03-22 20:42:00,33.4,23.0,29.96,SSE,162,0.0,2.0,65,0.00,,,0.00,meteohub,2013-03-23 00:42:00,
2013-03-22 20:52:00,32.9,23.5,29.96,SSE,162,0.0,1.0,68,0.00,,,0.00,meteohub,2013-03-23 00:52:00,
2013-03-22 20:57:00,32.5,22.8,29.96,SW,232,1.0,0.0,67,0.00,,,0.00,meteohub,2013-03-23 00:57:00,
2013-03-22 21:02:00,32.5,22.8,29.97,NW,308,1.0,1.0,67,0.00,,,0.00,meteohub,2013-03-23 01:02:00,
2013-03-22 21:12:00,32.2,22.8,29.96,West,280,0.0,2.0,68,0.00,,,0.00,meteohub,2013-03-23 01:12:00,
2013-03-22 21:17:00,32.2,23.5,29.97,SSE,152,0.0,2.0,70,0.00,,,0.00,meteohub,2013-03-23 01:17:00,
2013-03-22 21:27:00,31.3,23.0,29.97,SSE,152,0.0,1.0,71,0.00,,,0.00,meteohub,2013-03-23 01:27:00,
2013-03-22 21:32:00,30.7,22.5,29.96,SSE,152,0.0,0.0,71,0.00,,,0.00,meteohub,2013-03-23 01:32:00,
2013-03-22 21:37:00,30.4,22.8,29.96,SSE,153,0.0,0.0,73,0.00,,,0.00,meteohub,2013-03-23 01:37:00,
2013-03-22 21:42:00,30.0,22.8,29.96,SSE,152,0.0,0.0,74,0.00,,,0.00,meteohub,2013-03-23 01:42:00,
2013-03-22 21:52:00,29.7,21.4,29.96,NW,309,0.0,1.0,71,0.00,,,0.00,meteohub,2013-03-23 01:52:00,
2013-03-22 21:57:00,29.8,21.9,29.96,NW,309,0.0,1.0,72,0.00,,,0.00,meteohub,2013-03-23 01:57:00,
2013-03-22 22:07:00,29.3,22.1,29.96,NW,309,0.0,1.0,74,0.00,,,0.00,meteohub,2013-03-23 02:07:00,
2013-03-22 22:17:00,29.1,21.9,29.97,NW,309,0.0,0.0,74,0.00,,,0.00,meteohub,2013-03-23 02:17:00,
2013-03-22 22:22:00,28.9,22.3,29.97,NW,309,0.0,0.0,76,0.00,,,0.00,meteohub,2013-03-23 02:22:00,
2013-03-22 22:32:00,28.6,21.9,29.98,WSW,255,1.0,0.0,76,0.00,,,0.00,meteohub,2013-03-23 02:32:00,
2013-03-22 22:37:00,28.6,21.7,29.98,SW,231,0.0,2.0,75,0.00,,,0.00,meteohub,2013-03-23 02:37:00,
2013-03-22 22:42:00,28.4,21.6,29.98,SW,231,0.0,2.0,75,0.00,,,0.00,meteohub,2013-03-23 02:42:00,
2013-03-22 22:47:00,28.0,21.2,29.98,SW,231,0.0,2.0,75,0.00,,,0.00,meteohub,2013-03-23 02:47:00,
2013-03-22 22:52:00,28.0,21.4,29.98,WNW,288,0.0,2.0,76,0.00,,,0.00,meteohub,2013-03-23 02:52:00,
2013-03-22 22:57:00,27.9,21.6,29.98,WNW,285,1.0,2.0,77,0.00,,,0.00,meteohub,2013-03-23 02:57:00,
2013-03-22 23:07:00,27.3,21.0,29.98,WSW,242,1.0,1.0,77,0.00,,,0.00,meteohub,2013-03-23 03:07:00,
2013-03-22 23:12:00,27.5,21.0,29.98,WSW,245,1.0,1.0,76,0.00,,,0.00,meteohub,2013-03-23 03:12:00,
2013-03-22 23:17:00,27.9,21.0,29.98,WSW,252,1.0,1.0,75,0.00,,,0.00,meteohub,2013-03-23 03:17:00,
2013-03-22 23:22:00,27.9,21.0,29.98,SW,229,0.0,2.0,75,0.00,,,0.00,meteohub,2013-03-23 03:22:00,
2013-03-22 23:27:00,27.3,20.8,29.99,SW,226,1.0,2.0,76,0.00,,,0.00,meteohub,2013-03-23 03:27:00,
2013-03-22 23:37:00,27.1,20.8,29.98,WSW,248,1.0,1.0,77,0.00,,,0.00,meteohub,2013-03-23 03:37:00,
2013-03-22 23:42:00,27.3,20.8,29.98,West,270,0.0,2.0,76,0.00,,,0.00,meteohub,2013-03-23 03:42:00,
2013-03-22 23:52:00,27.0,20.5,29.99,West,270,0.0,2.0,76,0.00,,,0.00,meteohub,2013-03-23 03:52:00,